Time;durP1;ratioP1;P1;durP2;ratioP2;P2;SDS_P1;SDS_P2;PMS_P1;PMS_P2;Temp;Humidity;BMP_temperature;BMP_pressure;BME280_temperature;BME280_humidity;BME280_pressure;Samples;Min_cycle;Max_cycle;Signal;HPM_P1;HPM_P2
2022/05/25 00:00:16;;;;;;;3.83;3.53;;;;;;;12.28;74.21;99922.50;5122000;28;20472;-61
2022/05/25 00:02:42;;;;;;;3.47;3.00;;;;;;;12.35;74.06;99931.56;5122291;28;20458;-61
2022/05/25 00:05:11;;;;;;;3.83;3.20;;;;;;;12.39;73.81;99932.09;5121264;28;20454;-61
2022/05/25 00:07:38;;;;;;;4.00;2.90;;;;;;;12.30;73.95;99935.75;5121989;28;20946;-61
2022/05/25 00:10:05;;;;;;;4.00;2.73;;;;;;;12.32;74.09;99929.22;5117480;28;20472;-60
2022/05/25 00:12:32;;;;;;;4.10;3.40;;;;;;;12.27;74.36;99931.53;5122587;28;20455;-60
2022/05/25 00:15:00;;;;;;;3.27;2.70;;;;;;;12.26;73.72;99935.22;5121947;28;20501;-60
2022/05/25 00:17:27;;;;;;;6.87;3.20;;;;;;;12.28;73.50;99938.59;5109701;28;20500;-60
2022/05/25 00:20:00;;;;;;;4.30;3.43;;;;;;;12.29;73.44;99947.47;5119746;28;20462;-60
2022/05/25 00:22:27;;;;;;;3.40;2.70;;;;;;;12.37;73.14;99942.97;5121693;28;20509;-60
2022/05/25 00:24:57;;;;;;;8.63;3.60;;;;;;;12.49;72.59;99951.59;5122279;28;20442;-60
2022/05/25 00:27:23;;;;;;;3.17;2.77;;;;;;;12.39;73.08;99945.50;5121093;28;20533;-62
2022/05/25 00:29:50;;;;;;;3.97;3.37;;;;;;;12.44;73.02;99943.19;5122052;28;21006;-61
2022/05/25 00:32:18;;;;;;;4.60;2.50;;;;;;;12.49;72.59;99948.91;5120892;28;20474;-61
2022/05/25 00:34:45;;;;;;;4.50;3.10;;;;;;;12.35;73.32;99942.31;5122243;28;20974;-61
2022/05/25 00:37:12;;;;;;;5.40;3.60;;;;;;;12.34;73.38;99942.47;5120689;28;20520;-61
2022/05/25 00:39:40;;;;;;;4.93;3.37;;;;;;;12.38;73.51;99949.19;5122020;28;20479;-61
2022/05/25 00:42:07;;;;;;;4.27;3.60;;;;;;;12.40;73.28;99941.84;5120818;28;20482;-60
2022/05/25 00:44:34;;;;;;;4.40;3.80;;;;;;;12.34;73.08;99951.38;5121353;28;20442;-60
2022/05/25 00:47:01;;;;;;;2.93;2.73;;;;;;;12.13;74.33;99953.56;5120301;28;20481;-61
2022/05/25 00:49:31;;;;;;;7.00;3.30;;;;;;;12.28;73.67;99961.88;5122241;28;20434;-61
2022/05/25 00:52:00;;;;;;;4.00;3.60;;;;;;;12.21;74.35;99956.31;5121547;28;20508;-61
2022/05/25 00:54:29;;;;;;;5.47;3.73;;;;;;;12.15;74.10;99959.59;5122186;28;20442;-61
2022/05/25 00:56:57;;;;;;;5.90;3.37;;;;;;;12.05;74.77;99954.38;5117314;28;20478;-61
2022/05/25 00:59:27;;;;;;;9.27;3.97;;;;;;;12.08;74.57;99969.28;5121528;28;20434;-61
2022/05/25 01:01:55;;;;;;;6.20;4.40;;;;;;;12.05;74.50;99965.09;5120926;28;21021;-61
2022/05/25 01:04:22;;;;;;;5.73;3.03;;;;;;;11.99;74.89;99960.34;5121692;28;20537;-61
2022/05/25 01:06:58;;;;;;;7.73;3.80;;;;;;;12.02;74.66;99960.88;5107839;28;20470;-60
2022/05/25 01:09:37;;;;;;;5.87;3.70;;;;;;;11.99;74.72;99963.84;5121455;28;20437;-61
2022/05/25 01:12:18;;;;;;;4.67;4.03;;;;;;;12.07;74.33;99967.63;5121243;28;20474;-61
2022/05/25 01:15:02;;;;;;;5.70;4.23;;;;;;;12.03;74.53;99967.91;5111662;28;20442;-60
2022/05/25 01:17:38;;;;;;;3.90;3.50;;;;;;;11.97;75.33;99967.69;5112911;28;20557;-61
2022/05/25 01:20:15;;;;;;;7.73;4.70;;;;;;;11.85;75.56;99983.97;5121779;28;20441;-60
2022/05/25 01:23:34;;;;;;;5.77;3.97;;;;;;;11.84;75.25;99979.63;5120427;28;20454;-60
2022/05/25 01:26:48;;;;;;;6.63;5.03;;;;;;;11.76;75.58;99978.72;5117469;28;20572;-60
2022/05/25 01:29:48;;;;;;;11.83;4.63;;;;;;;11.78;75.90;99987.44;5098463;28;21789;-61
2022/05/25 01:32:22;;;;;;;7.73;5.07;;;;;;;11.83;75.52;99988.66;5072038;28;20496;-61
2022/05/25 01:34:53;;;;;;;5.03;3.90;;;;;;;11.91;75.08;99979.88;5119084;28;20469;-60
2022/05/25 01:37:24;;;;;;;6.03;3.80;;;;;;;11.88;75.15;99989.03;5120522;28;20545;-62
2022/05/25 01:39:56;;;;;;;5.50;3.90;;;;;;;11.77;76.14;99988.44;5116823;28;20462;-61
2022/05/25 01:42:27;;;;;;;5.90;3.90;;;;;;;11.73;76.20;99990.56;5119814;28;20485;-62
2022/05/25 01:44:58;;;;;;;7.17;4.97;;;;;;;11.81;75.42;99998.69;5118164;28;20442;-61
2022/05/25 01:47:27;;;;;;;4.80;3.90;;;;;;;11.85;74.98;99988.50;5112886;28;20470;-61
2022/05/25 01:49:56;;;;;;;4.30;3.63;;;;;;;11.85;75.64;99996.53;5121781;28;20438;-62
2022/05/25 01:52:30;;;;;;;4.50;4.10;;;;;;;11.65;76.21;99996.72;5120735;28;20503;-61
2022/05/25 01:54:57;;;;;;;5.17;4.60;;;;;;;11.60;76.69;99990.16;5118785;28;20457;-60
2022/05/25 01:57:31;;;;;;;6.10;4.73;;;;;;;11.54;76.81;99983.53;5120021;27;20478;-61
2022/05/25 01:59:59;;;;;;;5.40;4.63;;;;;;;11.55;76.91;99990.59;5121278;28;20457;-61
2022/05/25 02:05:13;;;;;;;5.33;4.10;;;;;;;11.36;77.59;99993.44;5116143;28;20464;-61
2022/05/25 02:07:54;;;;;;;5.60;4.83;;;;;;;11.32;77.36;99992.91;5114602;28;20442;-60
2022/05/25 02:10:32;;;;;;;5.60;4.53;;;;;;;11.43;76.97;99986.47;5106002;28;20438;-60
2022/05/25 02:13:09;;;;;;;6.30;4.83;;;;;;;11.36;77.33;99986.22;5121620;28;20431;-61
2022/05/25 02:15:44;;;;;;;5.93;4.23;;;;;;;11.33;77.01;99997.25;5112125;28;20466;-61
2022/05/25 02:18:17;;;;;;;7.30;4.10;;;;;;;11.28;77.56;99992.34;5116785;28;21081;-60
2022/05/25 02:20:48;;;;;;;8.37;4.73;;;;;;;11.27;77.71;100004.03;5109499;28;20466;-61
2022/05/25 02:23:26;;;;;;;6.13;4.03;;;;;;;11.30;77.55;100009.09;5121484;28;20441;-61
2022/05/25 02:25:59;;;;;;;6.23;4.00;;;;;;;11.21;77.91;100009.97;5119395;28;20466;-60
2022/05/25 02:28:28;;;;;;;3.90;3.40;;;;;;;11.22;77.60;100002.81;5122053;28;20950;-61
2022/05/25 02:30:58;;;;;;;5.33;4.70;;;;;;;11.18;77.86;100010.31;5123545;28;20561;-60
2022/05/25 02:33:28;;;;;;;7.30;4.77;;;;;;;11.20;77.66;100013.69;5124834;28;20453;-61
2022/05/25 02:35:57;;;;;;;5.30;4.27;;;;;;;11.20;77.68;100011.00;5116758;28;20476;-61
2022/05/25 02:38:24;;;;;;;6.33;4.00;;;;;;;11.17;77.59;100005.94;5125347;28;22112;-61
2022/05/25 02:40:50;;;;;;;10.20;4.70;;;;;;;11.21;77.15;100012.66;5124005;28;20476;-60
2022/05/25 02:43:17;;;;;;;7.40;4.63;;;;;;;11.24;77.11;100017.72;5123950;28;20517;-60
2022/05/25 02:45:45;;;;;;;4.73;3.70;;;;;;;11.14;78.03;100016.94;5121908;28;20490;-60
2022/05/25 02:48:14;;;;;;;7.60;4.00;;;;;;;11.17;77.56;100013.97;5124466;28;20480;-60
2022/05/25 02:50:41;;;;;;;5.13;4.60;;;;;;;11.20;77.37;100018.19;5116278;28;20469;-60
2022/05/25 02:53:14;;;;;;;5.03;4.50;;;;;;;11.10;77.35;100016.41;5123167;28;20513;-60
2022/05/25 02:55:41;;;;;;;5.87;4.40;;;;;;;11.15;77.19;100020.47;5120849;28;20474;-60
2022/05/25 02:58:07;;;;;;;7.70;4.40;;;;;;;11.12;77.34;100016.25;5123863;28;20889;-59
2022/05/25 03:00:34;;;;;;;5.67;4.93;;;;;;;11.07;77.81;100023.88;5124120;28;20499;-59
2022/05/25 03:03:01;;;;;;;7.10;4.83;;;;;;;11.01;77.61;100024.50;5122840;28;20454;-59
2022/05/25 03:05:29;;;;;;;6.53;5.10;;;;;;;11.19;77.07;100022.69;5118757;28;20494;-59
2022/05/25 03:07:55;;;;;;;6.53;4.87;;;;;;;11.11;77.63;100025.28;5123681;28;20450;-60
2022/05/25 03:10:22;;;;;;;7.23;5.57;;;;;;;11.16;77.72;100033.69;5123480;28;20446;-59
2022/05/25 03:12:49;;;;;;;6.90;5.60;;;;;;;11.10;77.64;100027.09;5123918;28;20450;-60
2022/05/25 03:15:20;;;;;;;8.67;5.07;;;;;;;11.08;77.80;100033.59;5117198;28;20459;-59
2022/05/25 03:17:47;;;;;;;7.53;5.00;;;;;;;11.03;77.97;100038.56;5120528;28;20481;-60
2022/05/25 03:20:14;;;;;;;6.63;5.80;;;;;;;11.00;78.11;100039.69;5123684;28;20434;-60
2022/05/25 03:22:44;;;;;;;6.77;5.70;;;;;;;10.99;78.58;100045.19;5124106;28;20510;-60
2022/05/25 03:25:11;;;;;;;8.17;6.10;;;;;;;10.98;78.37;100048.84;5120316;28;20450;-60
2022/05/25 03:27:38;;;;;;;9.50;5.93;;;;;;;11.01;78.60;100046.72;5103705;28;20852;-59
2022/05/25 03:30:07;;;;;;;7.10;5.00;;;;;;;10.98;78.90;100052.38;5121730;28;20472;-61
2022/05/25 03:32:33;;;;;;;9.90;6.70;;;;;;;11.01;78.63;100051.25;5122786;28;20545;-60
2022/05/25 03:35:00;;;;;;;8.07;5.90;;;;;;;11.17;78.45;100047.91;5122980;28;20446;-60
2022/05/25 03:37:27;;;;;;;9.20;7.53;;;;;;;11.60;77.27;100057.09;5118249;28;20549;-60
2022/05/25 03:39:55;;;;;;;7.17;6.47;;;;;;;12.02;75.54;100051.97;5121734;28;20489;-61
2022/05/25 03:42:23;;;;;;;8.70;5.60;;;;;;;12.27;73.72;100059.34;5123110;28;20508;-60
2022/05/25 03:44:49;;;;;;;7.97;5.53;;;;;;;12.25;73.31;100048.78;5122633;28;20501;-61
2022/05/25 03:47:17;;;;;;;7.73;5.63;;;;;;;12.08;73.63;100057.69;5112814;28;20824;-60
2022/05/25 03:49:43;;;;;;;6.50;5.17;;;;;;;11.78;74.45;100049.88;5123569;28;20458;-61
2022/05/25 03:52:11;;;;;;;6.60;5.80;;;;;;;11.57;75.37;100062.75;5123112;28;20466;-61
2022/05/25 03:54:38;;;;;;;7.10;4.97;;;;;;;11.56;75.82;100061.03;5122991;28;20454;-60
2022/05/25 03:57:07;;;;;;;8.87;5.50;;;;;;;13.00;73.22;100065.16;5121234;28;20515;-61
2022/05/25 03:59:33;;;;;;;9.93;5.60;;;;;;;14.26;67.12;100056.19;5123292;28;20454;-61
2022/05/25 04:02:01;;;;;;;6.63;5.67;;;;;;;15.33;62.62;100072.06;5121950;28;20512;-61
2022/05/25 04:04:27;;;;;;;5.07;4.20;;;;;;;16.18;59.45;100060.41;5122966;28;20457;-61
2022/05/25 04:06:54;;;;;;;5.20;4.17;;;;;;;15.92;59.67;100068.00;5122273;28;20539;-61
2022/05/25 04:09:21;;;;;;;5.50;4.27;;;;;;;16.30;59.17;100070.75;5122790;28;20457;-61
2022/05/25 04:11:48;;;;;;;4.67;3.57;;;;;;;17.43;55.59;100077.78;5121267;28;20478;-61
2022/05/25 04:14:16;;;;;;;7.43;4.50;;;;;;;17.14;55.92;100065.16;5122180;28;20488;-62
2022/05/25 04:16:43;;;;;;;5.00;4.40;;;;;;;18.00;52.51;100070.75;5121088;28;20482;-60
2022/05/25 04:19:10;;;;;;;6.37;4.40;;;;;;;18.24;51.99;100077.63;5122821;28;20479;-61
2022/05/25 04:21:37;;;;;;;5.30;4.00;;;;;;;18.38;51.16;100075.00;5119282;28;21013;-61
2022/05/25 04:24:04;;;;;;;5.70;4.70;;;;;;;18.33;50.87;100064.78;5122662;28;20438;-61
2022/05/25 04:26:31;;;;;;;7.90;6.03;;;;;;;18.75;48.80;100078.41;5127447;27;20576;-62
2022/05/25 04:28:58;;;;;;;8.20;6.07;;;;;;;18.88;48.83;100077.69;5131654;27;20442;-61
2022/05/25 04:31:26;;;;;;;5.43;4.30;;;;;;;19.38;48.57;100072.94;5121917;27;20494;-62
2022/05/25 04:33:52;;;;;;;5.63;5.00;;;;;;;19.59;47.58;100077.38;5123288;27;20442;-62
2022/05/25 04:36:19;;;;;;;7.00;5.43;;;;;;;19.33;47.43;100075.41;5121124;27;20469;-61
2022/05/25 04:38:46;;;;;;;7.23;5.27;;;;;;;18.89;48.46;100065.81;5115621;28;20490;-61
2022/05/25 04:41:13;;;;;;;5.83;5.20;;;;;;;19.28;47.63;100065.16;5114716;27;20902;-62
2022/05/25 04:43:40;;;;;;;7.63;5.57;;;;;;;19.12;48.00;100071.78;5126260;27;20478;-61
2022/05/25 04:46:09;;;;;;;6.07;5.30;;;;;;;18.75;48.71;100073.81;5110369;28;20491;-61
2022/05/25 04:48:37;;;;;;;6.10;5.50;;;;;;;18.90;48.15;100073.72;5122175;28;20453;-62
2022/05/25 04:51:04;;;;;;;5.87;5.10;;;;;;;19.93;45.92;100071.03;5120017;28;20493;-62
2022/05/25 04:53:31;;;;;;;5.80;4.77;;;;;;;19.71;46.32;100075.75;5123148;28;20462;-62
2022/05/25 04:58:44;;;;;;;7.83;5.37;;;;;;;20.34;44.66;100090.88;5120710;28;20485;-62
2022/05/25 05:01:12;;;;;;;7.00;5.07;;;;;;;19.40;47.15;100087.13;5120956;28;20534;-62
2022/05/25 05:03:40;;;;;;;5.53;4.90;;;;;;;19.80;46.11;100087.25;5121325;28;20521;-61
2022/05/25 05:06:35;;;;;;;;;;;;;;;;;;;;;
2022/05/25 05:09:06;;;;;;;5.93;4.90;;;;;;;19.63;46.81;100085.94;5100914;28;20519;-62
2022/05/25 05:11:32;;;;;;;4.67;4.27;;;;;;;19.13;47.62;100092.41;5119770;28;20469;-62
2022/05/25 05:14:00;;;;;;;4.90;4.40;;;;;;;20.29;45.29;100093.38;5112285;28;20462;-62
2022/05/25 05:16:27;;;;;;;6.37;3.77;;;;;;;20.90;43.32;100092.34;5117843;28;20480;-63
2022/05/25 05:18:55;;;;;;;6.90;4.57;;;;;;;19.37;47.06;100096.50;5121464;28;20914;-62
2022/05/25 05:21:21;;;;;;;5.80;4.50;;;;;;;19.68;46.43;100099.72;5121192;28;20538;-64
2022/05/25 05:23:48;;;;;;;5.40;3.90;;;;;;;20.49;44.77;100105.09;5121764;28;20474;-63
2022/05/25 05:26:14;;;;;;;5.60;4.63;;;;;;;19.04;47.32;100107.16;5120128;28;20498;-63
2022/05/25 05:28:42;;;;;;;5.20;4.70;;;;;;;18.63;48.90;100097.06;5121378;28;20473;-61
2022/05/25 05:34:32;;;;;;;6.03;4.60;;;;;;;19.11;47.88;100102.63;5101713;28;20441;-62
2022/05/25 05:41:02;;;;;;;7.10;4.50;;;;;;;19.72;46.63;100104.53;5106922;28;20984;-63
2022/05/25 05:43:29;;;;;;;6.23;4.60;;;;;;;20.19;44.68;100107.38;5120777;28;20541;-63
2022/05/25 05:45:56;;;;;;;10.00;4.77;;;;;;;20.47;45.21;100109.91;5119529;28;20469;-64
2022/05/25 05:48:24;;;;;;;7.07;5.00;;;;;;;20.37;45.55;100111.38;5120586;28;20541;-61
2022/05/25 05:50:55;;;;;;;9.73;5.03;;;;;;;19.79;46.27;100101.88;5115930;28;20546;-62
2022/05/25 05:53:22;;;;;;;6.10;5.50;;;;;;;20.39;45.32;100114.69;5118602;28;20445;-60
2022/05/25 05:55:49;;;;;;;8.57;5.43;;;;;;;19.92;46.29;100120.91;5120504;28;20501;-63
2022/05/25 05:58:16;;;;;;;11.50;5.00;;;;;;;19.94;45.57;100109.84;5119876;28;20584;-62
2022/05/25 06:00:43;;;;;;;7.00;6.07;;;;;;;20.30;45.56;100122.22;5107847;28;20480;-62
2022/05/25 06:03:09;;;;;;;6.73;5.23;;;;;;;19.98;46.22;100110.25;5121548;28;20469;-61
2022/05/25 06:05:36;;;;;;;8.87;5.80;;;;;;;20.65;44.21;100124.75;5120587;28;20514;-61
2022/05/25 06:08:09;;;;;;;8.00;5.40;;;;;;;20.77;44.82;100123.06;5105483;28;20454;-61
2022/05/25 06:10:36;;;;;;;7.57;5.20;;;;;;;20.71;44.52;100133.94;5104564;28;20490;-63
2022/05/25 06:13:03;;;;;;;5.43;4.87;;;;;;;19.65;46.65;100136.25;5105503;28;20522;-62
2022/05/25 06:20:58;;;;;;;5.93;4.30;;;;;;;20.88;44.51;100127.88;5124266;28;20480;-62
2022/05/25 06:23:38;;;;;;;6.60;4.60;;;;;;;20.62;44.06;100138.75;5119298;28;20440;-62
2022/05/25 06:26:04;;;;;;;10.20;4.73;;;;;;;21.18;44.02;100154.59;5121678;28;20857;-60
2022/05/25 06:28:31;;;;;;;7.10;5.53;;;;;;;19.96;46.50;100147.63;5125111;28;20480;-60
2022/05/25 06:30:58;;;;;;;5.50;5.00;;;;;;;20.66;44.48;100150.88;5124260;28;20566;-61
2022/05/25 06:33:24;;;;;;;9.80;4.97;;;;;;;21.85;42.69;100153.53;5125373;28;20466;-61
2022/05/25 06:35:51;;;;;;;5.90;4.60;;;;;;;21.76;42.39;100156.50;5123525;28;20576;-60
2022/05/25 06:38:18;;;;;;;6.20;4.50;;;;;;;20.72;43.53;100154.63;5123934;27;20489;-61
2022/05/25 06:40:46;;;;;;;6.40;4.77;;;;;;;20.85;44.87;100160.06;5118287;27;20469;-61
2022/05/25 06:43:13;;;;;;;7.40;4.33;;;;;;;20.66;44.06;100153.59;5117732;28;20551;-61
2022/05/25 06:45:40;;;;;;;6.03;4.83;;;;;;;20.73;44.30;100156.28;5114266;28;20477;-61
2022/05/25 06:48:07;;;;;;;5.40;4.07;;;;;;;22.19;41.05;100165.91;5121836;27;20565;-61
2022/05/25 06:50:34;;;;;;;10.37;4.43;;;;;;;21.86;41.66;100166.91;5133883;27;20511;-61
2022/05/25 06:53:02;;;;;;;6.37;4.07;;;;;;;21.36;41.43;100172.94;5128670;27;20452;-61
2022/05/25 06:55:29;;;;;;;5.03;4.27;;;;;;;21.25;42.56;100162.72;5124459;27;20523;-61
2022/05/25 06:57:57;;;;;;;6.60;3.97;;;;;;;21.80;41.18;100165.91;5124055;28;20524;-60
2022/05/25 07:00:23;;;;;;;7.87;4.17;;;;;;;21.62;41.14;100173.94;5123741;28;20493;-61
2022/05/25 07:02:50;;;;;;;7.10;4.37;;;;;;;22.55;39.74;100170.72;5133650;27;20553;-61
2022/05/25 07:05:17;;;;;;;7.00;4.60;;;;;;;21.85;41.25;100178.03;5126269;27;20991;-60
2022/05/25 07:07:43;;;;;;;5.40;4.20;;;;;;;22.46;39.47;100182.09;5126902;27;20438;-61
2022/05/25 07:10:10;;;;;;;7.50;5.40;;;;;;;22.47;39.61;100184.59;5123633;28;20450;-61
2022/05/25 07:12:37;;;;;;;7.70;4.47;;;;;;;21.22;41.90;100177.56;5138852;27;20453;-61
2022/05/25 07:15:07;;;;;;;5.80;4.30;;;;;;;23.63;37.79;100170.53;5124814;27;20454;-61
2022/05/25 07:17:34;;;;;;;5.50;4.40;;;;;;;22.82;39.64;100172.38;5138310;27;20458;-61
2022/05/25 07:20:01;;;;;;;6.73;4.40;;;;;;;21.80;40.97;100174.06;5112522;28;20451;-61
2022/05/25 07:22:28;;;;;;;5.90;5.13;;;;;;;21.47;42.29;100166.03;5115880;28;20484;-61
2022/05/25 07:24:56;;;;;;;7.47;5.60;;;;;;;22.85;39.07;100164.59;5121644;27;20453;-61
2022/05/25 07:27:22;;;;;;;13.37;6.60;;;;;;;21.97;41.55;100168.13;5119880;28;20490;-60
2022/05/25 07:29:49;;;;;;;7.47;6.17;;;;;;;20.92;44.22;100171.78;5121044;28;20474;-61
2022/05/25 07:32:17;;;;;;;8.07;6.70;;;;;;;20.93;44.26;100167.16;5118862;28;20480;-61
2022/05/25 07:34:47;;;;;;;8.97;6.73;;;;;;;22.83;40.36;100171.31;5123282;28;20510;-61
2022/05/25 07:37:16;;;;;;;7.63;6.80;;;;;;;23.73;38.69;100164.50;5108187;28;20506;-59
2022/05/25 07:39:45;;;;;;;7.43;6.63;;;;;;;22.93;39.25;100167.03;5115815;28;20568;-60
2022/05/25 07:42:12;;;;;;;7.53;6.43;;;;;;;23.78;39.21;100170.09;5117370;28;20626;-60
2022/05/25 07:44:42;;;;;;;9.63;7.77;;;;;;;23.39;38.58;100164.09;5121083;27;20468;-60
2022/05/25 07:47:09;;;;;;;8.77;7.87;;;;;;;22.59;38.65;100167.56;5128202;27;20499;-60
2022/05/25 07:49:37;;;;;;;10.20;8.10;;;;;;;23.08;39.26;100172.16;5103234;28;20510;-60
2022/05/25 07:52:05;;;;;;;8.70;7.77;;;;;;;22.62;39.83;100178.84;5112339;28;20481;-60
2022/05/25 07:54:32;;;;;;;6.97;6.37;;;;;;;22.34;39.40;100173.78;5119544;28;20442;-61
2022/05/25 07:56:59;;;;;;;8.60;7.80;;;;;;;21.64;41.76;100171.81;5121312;28;20564;-61
2022/05/25 07:59:26;;;;;;;7.53;6.70;;;;;;;20.69;43.19;100172.19;5120721;27;20522;-61
2022/05/25 08:07:26;;;;;;;8.07;7.30;;;;;;;18.04;47.74;100176.69;5116527;27;20856;-60
2022/05/25 08:10:04;;;;;;;8.93;7.00;;;;;;;18.34;47.21;100168.47;5123251;27;20446;-61
2022/05/25 08:12:31;;;;;;;8.13;7.33;;;;;;;17.90;49.01;100183.81;5110228;28;20902;-61
2022/05/25 08:14:57;;;;;;;9.47;7.70;;;;;;;17.67;49.89;100189.31;5102699;28;20466;-61
2022/05/25 08:17:24;;;;;;;9.30;7.80;;;;;;;17.28;51.61;100179.66;5108113;28;20577;-61
2022/05/25 08:19:52;;;;;;;8.07;7.40;;;;;;;16.70;53.54;100182.03;5122338;28;20553;-61
2022/05/25 08:22:18;;;;;;;10.00;7.73;;;;;;;17.09;53.65;100184.56;5120134;28;20565;-61
2022/05/25 08:24:45;;;;;;;11.53;8.30;;;;;;;17.19;53.48;100184.31;5110931;28;20513;-61
2022/05/25 08:27:11;;;;;;;7.77;7.00;;;;;;;18.29;50.37;100187.97;5108521;28;20569;-61
2022/05/25 08:29:38;;;;;;;8.00;6.57;;;;;;;20.33;45.67;100184.25;5111764;28;20515;-61
2022/05/25 08:32:05;;;;;;;7.43;6.10;;;;;;;21.41;41.76;100192.16;5101539;28;20558;-61
2022/05/25 08:34:32;;;;;;;4.97;4.57;;;;;;;20.44;40.91;100182.81;5116345;27;20509;-61
2022/05/25 08:37:01;;;;;;;9.17;5.37;;;;;;;20.18;43.10;100189.84;5122373;28;20929;-61
2022/05/25 08:39:28;;;;;;;6.07;5.67;;;;;;;18.86;46.28;100182.69;5121382;28;20493;-61
2022/05/25 08:41:56;;;;;;;6.07;5.47;;;;;;;19.30;46.20;100178.81;5116608;28;21097;-61
2022/05/25 08:44:24;;;;;;;5.90;5.30;;;;;;;19.74;43.82;100173.03;5119320;27;20543;-61
2022/05/25 08:46:54;;;;;;;6.30;5.57;;;;;;;20.01;44.04;100183.13;5123969;27;20475;-61
2022/05/25 08:49:21;;;;;;;5.97;4.90;;;;;;;21.62;41.24;100182.09;5113975;27;20471;-62
2022/05/25 08:51:50;;;;;;;4.60;4.20;;;;;;;22.84;37.59;100175.72;5139667;27;20479;-61
2022/05/25 08:54:20;;;;;;;6.83;5.43;;;;;;;20.16;42.88;100174.81;5118984;28;20469;-62
2022/05/25 08:56:49;;;;;;;6.60;5.90;;;;;;;20.02;43.43;100172.06;5136565;27;20503;-61
2022/05/25 08:59:21;;;;;;;12.00;5.37;;;;;;;21.73;39.49;100175.97;5138594;27;20482;-61
2022/05/25 09:01:52;;;;;;;4.93;4.23;;;;;;;22.26;38.34;100166.69;5129540;27;20845;-61
2022/05/25 09:04:23;;;;;;;6.73;4.30;;;;;;;21.71;39.09;100174.53;5122880;28;20533;-61
2022/05/25 09:06:55;;;;;;;6.93;4.37;;;;;;;21.99;38.61;100175.03;5115439;28;20545;-61
2022/05/25 09:09:27;;;;;;;5.03;4.07;;;;;;;23.00;37.62;100168.84;5126659;27;21008;-61
2022/05/25 09:12:24;;;;;;;5.13;3.60;;;;;;;24.38;35.08;100170.13;5127442;27;20501;-62
2022/05/25 09:14:56;;;;;;;4.70;3.50;;;;;;;24.74;33.35;100159.31;5111292;28;20466;-62
2022/05/25 09:17:26;;;;;;;4.50;4.10;;;;;;;24.23;33.19;100147.88;5119532;27;20558;-61
2022/05/25 09:19:53;;;;;;;3.63;2.90;;;;;;;24.00;34.58;100154.94;5113296;28;20562;-61
2022/05/25 09:22:22;;;;;;;5.23;3.13;;;;;;;24.38;34.68;100161.09;5118165;28;20536;-61
2022/05/25 09:24:51;;;;;;;4.40;2.80;;;;;;;23.01;36.30;100162.34;5121512;28;20478;-61
2022/05/25 09:27:20;;;;;;;4.43;2.80;;;;;;;22.35;38.03;100172.75;5131721;27;20540;-61
2022/05/25 09:29:47;;;;;;;4.10;2.90;;;;;;;23.19;36.01;100161.56;5120698;28;20872;-62
2022/05/25 09:32:28;;;;;;;3.60;2.50;;;;;;;23.65;35.14;100171.94;5124867;28;20545;-62
2022/05/25 09:35:00;;;;;;;2.23;1.70;;;;;;;22.74;36.51;100174.34;5128006;28;20455;-62
2022/05/25 09:37:33;;;;;;;3.20;2.33;;;;;;;22.99;35.71;100167.19;5120956;28;20588;-62
2022/05/25 09:40:05;;;;;;;2.33;1.93;;;;;;;23.15;35.78;100169.34;5123548;27;20489;-62
2022/05/25 09:42:37;;;;;;;3.80;2.20;;;;;;;22.46;36.38;100171.19;5112127;27;20516;-62
2022/05/25 09:45:09;;;;;;;5.37;2.13;;;;;;;22.49;35.26;100178.94;5090405;28;20459;-62
2022/05/25 09:47:41;;;;;;;2.77;1.53;;;;;;;23.68;32.70;100181.59;5091359;28;20469;-62
2022/05/25 09:50:09;;;;;;;3.10;1.60;;;;;;;22.27;35.22;100181.13;5096883;28;20629;-63
2022/05/25 09:52:41;;;;;;;4.10;1.43;;;;;;;23.57;32.92;100187.78;5104762;28;20455;-62
2022/05/25 09:55:15;;;;;;;2.30;1.60;;;;;;;22.98;32.95;100179.97;5104800;28;20478;-62
2022/05/25 09:57:45;;;;;;;3.87;1.87;;;;;;;23.42;33.32;100175.38;5101647;28;20486;-62
2022/05/25 10:00:21;;;;;;;2.80;1.60;;;;;;;23.86;32.99;100165.19;5104372;28;21002;-62
2022/05/25 10:02:50;;;;;;;2.83;1.40;;;;;;;24.51;33.47;100177.31;5096038;28;20469;-62
2022/05/25 10:05:19;;;;;;;2.23;1.30;;;;;;;23.91;33.65;100171.88;5111308;28;20538;-62
2022/05/25 10:07:52;;;;;;;3.73;1.33;;;;;;;24.33;31.74;100180.94;5125698;28;20462;-62
2022/05/25 10:10:28;;;;;;;2.30;0.90;;;;;;;24.71;30.35;100184.38;5106638;28;20552;-62
2022/05/25 10:13:01;;;;;;;3.90;1.30;;;;;;;25.01;30.86;100178.78;5105051;28;20514;-62
2022/05/25 10:15:34;;;;;;;1.90;1.07;;;;;;;23.66;33.04;100197.34;5122514;28;20485;-62
2022/05/25 10:18:00;;;;;;;6.90;1.00;;;;;;;22.11;36.85;100193.38;5125290;28;20461;-62
2022/05/25 10:20:32;;;;;;;1.30;0.70;;;;;;;21.94;35.19;100193.91;5114617;28;20526;-62
2022/05/25 10:23:04;;;;;;;3.37;0.70;;;;;;;21.42;35.51;100190.28;5103111;28;20592;-62
2022/05/25 10:25:36;;;;;;;1.90;0.80;;;;;;;21.54;36.63;100202.19;5104953;28;20475;-62
2022/05/25 10:28:04;;;;;;;1.30;0.90;;;;;;;20.45;38.38;100189.88;5103301;28;20460;-61
2022/05/25 10:39:17;;;;;;;1.67;1.07;;;;;;;24.21;31.66;100180.06;5089816;28;20535;-62
2022/05/25 10:41:59;;;;;;;2.60;1.10;;;;;;;24.29;30.57;100178.91;5078170;28;20550;-62
2022/05/25 10:44:26;;;;;;;1.87;0.70;;;;;;;24.22;30.55;100173.53;5102461;28;20446;-62
2022/05/25 10:46:55;;;;;;;2.47;0.87;;;;;;;22.95;31.31;100175.00;5100137;28;20549;-61
2022/05/25 10:49:27;;;;;;;3.53;0.50;;;;;;;22.70;33.03;100183.16;5100571;28;20444;-61
2022/05/25 10:51:59;;;;;;;2.33;0.73;;;;;;;21.24;34.23;100177.34;5111343;28;20889;-61
2022/05/25 10:54:51;;;;;;;1.53;0.70;;;;;;;21.85;34.29;100180.75;5093642;28;20447;-61
2022/05/25 10:57:38;;;;;;;1.67;0.80;;;;;;;21.67;34.82;100181.47;5101885;28;20857;-62
2022/05/25 11:00:08;;;;;;;2.43;0.90;;;;;;;20.40;38.30;100176.94;5089524;28;20521;-62
2022/05/25 11:03:09;;;;;;;2.03;0.90;;;;;;;21.35;35.41;100174.00;5093378;28;20869;-61
2022/05/25 11:05:44;;;;;;;2.67;1.10;;;;;;;21.70;35.11;100178.28;5085761;28;20509;-62
2022/05/25 11:08:16;;;;;;;1.87;0.70;;;;;;;22.16;34.49;100177.22;5102586;28;20462;-61
2022/05/25 11:10:50;;;;;;;2.17;0.90;;;;;;;23.86;32.02;100181.56;5102456;28;20470;-62
2022/05/25 11:13:38;;;;;;;1.90;1.23;;;;;;;22.25;33.50;100184.06;5103988;28;20645;-61
2022/05/25 11:16:22;;;;;;;1.77;0.83;;;;;;;22.25;34.91;100192.25;5100679;28;20483;-62
2022/05/25 11:18:58;;;;;;;1.70;0.83;;;;;;;22.81;33.03;100179.72;5107641;28;20442;-61
2022/05/25 11:21:36;;;;;;;1.40;1.00;;;;;;;22.81;34.26;100190.63;5106739;28;20490;-61
2022/05/25 11:24:26;;;;;;;1.60;0.70;;;;;;;23.30;34.12;100180.75;5103886;28;20477;-62
2022/05/25 11:27:12;;;;;;;1.93;0.97;;;;;;;23.57;32.07;100191.34;5100777;28;20831;-61
2022/05/25 11:29:52;;;;;;;1.63;0.83;;;;;;;21.91;34.33;100201.66;5086208;28;20875;-61
2022/05/25 11:32:24;;;;;;;1.47;0.80;;;;;;;21.57;36.34;100198.22;5086268;28;20514;-60
2022/05/25 11:35:05;;;;;;;1.83;1.00;;;;;;;21.08;37.82;100192.25;5101600;28;20510;-61
2022/05/25 11:37:47;;;;;;;1.47;0.83;;;;;;;21.73;35.48;100188.75;5102987;28;20529;-61
2022/05/25 11:40:22;;;;;;;1.73;0.93;;;;;;;20.93;36.13;100188.91;5086240;28;20564;-61
2022/05/25 11:43:05;;;;;;;1.67;0.90;;;;;;;22.08;37.15;100186.50;5091492;28;20539;-61
2022/05/25 11:45:42;;;;;;;5.40;1.17;;;;;;;21.66;36.07;100193.38;5124522;27;20474;-61
2022/05/25 11:48:20;;;;;;;2.13;1.10;;;;;;;21.71;35.20;100185.41;5119334;28;20471;-61
2022/05/25 11:50:49;;;;;;;1.20;0.93;;;;;;;22.15;35.39;100179.13;5132599;27;21057;-61
2022/05/25 11:53:56;;;;;;;2.23;1.00;;;;;;;22.34;33.47;100169.19;5130186;27;20533;-61
2022/05/25 11:56:36;;;;;;;1.47;1.10;;;;;;;22.10;34.18;100168.06;5088895;27;20468;-61
2022/05/25 11:59:14;;;;;;;1.97;1.20;;;;;;;21.43;35.32;100173.75;5124483;27;20485;-60
2022/05/25 12:01:46;;;;;;;2.30;1.17;;;;;;;21.09;36.94;100166.72;5114302;27;21023;-60
2022/05/25 12:04:34;;;;;;;1.70;0.80;;;;;;;21.73;35.62;100169.69;5118714;27;20446;-60
2022/05/25 12:07:23;;;;;;;2.93;0.83;;;;;;;22.21;36.15;100166.50;5126898;27;20465;-60
2022/05/25 12:10:13;;;;;;;2.00;1.03;;;;;;;22.21;34.91;100166.50;5123971;27;20522;-60
2022/05/25 12:12:43;;;;;;;1.57;0.97;;;;;;;21.96;34.00;100152.81;5118870;28;20458;-60
2022/05/25 12:15:15;;;;;;;1.90;1.00;;;;;;;22.85;32.91;100159.13;5113670;28;20493;-61